createdAt,value
2022-12-04T00:01:22.324Z,73.35
2022-12-04T00:03:54.862Z,69.68
2022-12-04T00:06:24.066Z,69.13
2022-12-04T00:08:53.066Z,72.30
2022-12-04T00:11:27.513Z,69.72
2022-12-04T00:13:58.257Z,67.55
2022-12-04T00:16:32.661Z,69.50
2022-12-04T00:19:02.251Z,76.90
2022-12-04T00:21:30.438Z,72.45
2022-12-04T00:23:58.480Z,71.50
2022-12-04T00:26:28.375Z,66.97
2022-12-04T00:28:57.282Z,69.10
2022-12-04T00:31:26.965Z,60.42
2022-12-04T00:33:55.573Z,61.90
2022-12-04T00:36:27.074Z,61.45
2022-12-04T00:38:56.192Z,68.70
2022-12-04T00:41:26.548Z,58.45
2022-12-04T00:43:54.895Z,64.40
2022-12-04T00:46:23.842Z,68.47
2022-12-04T00:48:52.219Z,74.80
2022-12-04T00:51:22.397Z,79.30
2022-12-04T00:53:53.139Z,76.53
2022-12-04T00:56:23.171Z,68.50
2022-12-04T00:58:53.543Z,67.22
2022-12-04T01:01:23.024Z,71.13
2022-12-04T01:03:52.277Z,70.93
2022-12-04T01:06:22.934Z,57.92
2022-12-04T01:08:54.269Z,65.63
2022-12-04T01:11:23.900Z,63.92
2022-12-04T01:13:52.278Z,72.40
2022-12-04T01:16:23.914Z,59.63
2022-12-04T01:18:52.833Z,63.17
2022-12-04T01:21:21.278Z,62.85
2022-12-04T01:23:49.552Z,63.20
2022-12-04T01:26:19.262Z,61.92
2022-12-04T01:28:47.263Z,55.45
2022-12-04T01:31:18.160Z,57.35
2022-12-04T01:33:46.722Z,49.53
2022-12-04T01:36:20.321Z,55.97
2022-12-04T01:38:48.568Z,55.13
2022-12-04T01:41:21.048Z,45.03
2022-12-04T01:44:08.254Z,49.22
2022-12-04T01:46:36.534Z,46.70
2022-12-04T01:49:06.373Z,46.63
2022-12-04T01:51:38.299Z,48.03
2022-12-04T01:54:09.898Z,46.35
2022-12-04T01:56:42.425Z,48.35
2022-12-04T01:59:13.818Z,47.58
2022-12-04T02:01:47.726Z,45.63
2022-12-04T02:04:16.160Z,46.97
2022-12-04T02:06:44.091Z,46.97
2022-12-04T02:09:12.359Z,50.20
2022-12-04T02:11:48.086Z,48.30
2022-12-04T02:14:25.327Z,51.55
2022-12-04T02:17:02.878Z,50.80
2022-12-04T02:19:56.506Z,52.55
2022-12-04T02:22:37.665Z,56.53
2022-12-04T02:25:14.425Z,53.92
2022-12-04T02:27:59.556Z,53.25
2022-12-04T02:30:30.456Z,53.83
2022-12-04T02:33:04.884Z,54.20
2022-12-04T02:35:37.491Z,58.13
2022-12-04T02:38:11.819Z,53.28
2022-12-04T02:40:47.541Z,57.83
2022-12-04T02:43:21.469Z,55.42
2022-12-04T02:45:57.394Z,54.15
2022-12-04T02:48:27.817Z,59.92
2022-12-04T02:51:00.844Z,59.08
2022-12-04T02:53:34.752Z,66.03
2022-12-04T02:56:08.172Z,53.22
2022-12-04T02:58:42.169Z,56.30
2022-12-04T03:01:20.402Z,59.50
2022-12-04T03:03:54.415Z,58.25
2022-12-04T03:06:24.549Z,52.65
2022-12-04T03:11:25.809Z,52.17
2022-12-04T03:14:01.991Z,51.97
2022-12-04T03:16:33.685Z,51.92
2022-12-04T03:19:08.095Z,51.58
2022-12-04T03:21:39.196Z,55.30
2022-12-04T03:24:16.084Z,51.72
2022-12-04T03:26:47.881Z,47.05
2022-12-04T03:29:22.301Z,48.47
2022-12-04T03:31:55.390Z,50.38
2022-12-04T03:34:29.300Z,44.55
2022-12-04T03:37:00.181Z,45.03
2022-12-04T03:39:36.053Z,41.47
2022-12-04T03:42:09.696Z,42.15
2022-12-04T03:44:42.659Z,41.00
2022-12-04T03:47:13.108Z,42.10
2022-12-04T03:49:47.710Z,38.67
2022-12-04T03:52:24.795Z,38.85
2022-12-04T03:54:58.503Z,35.88
2022-12-04T03:57:30.229Z,34.65
2022-12-04T04:00:06.373Z,33.40
2022-12-04T04:02:39.188Z,36.40
2022-12-04T04:05:10.807Z,31.23
2022-12-04T04:07:43.701Z,35.60
2022-12-04T04:10:16.311Z,33.50
2022-12-04T04:13:08.919Z,34.38
2022-12-04T04:16:03.245Z,34.08
2022-12-04T04:18:50.516Z,31.27
2022-12-04T04:21:39.863Z,33.70
2022-12-04T04:24:17.983Z,31.50
2022-12-04T04:26:49.602Z,33.92
2022-12-04T04:29:17.602Z,31.45
2022-12-04T04:31:55.174Z,34.53
2022-12-04T04:34:33.298Z,34.47
2022-12-04T04:37:09.747Z,28.98
2022-12-04T04:39:43.860Z,32.20
2022-12-04T04:42:21.107Z,33.45
2022-12-04T04:44:58.128Z,31.80
2022-12-04T04:47:31.733Z,28.98
2022-12-04T04:50:02.577Z,30.52
2022-12-04T04:52:32.458Z,29.35
2022-12-04T04:55:02.581Z,34.88
2022-12-04T04:57:34.164Z,28.88
2022-12-04T05:00:02.534Z,31.67
2022-12-04T05:02:33.705Z,34.10
2022-12-04T05:05:01.809Z,32.47
2022-12-04T05:07:30.253Z,31.83
2022-12-04T05:09:58.901Z,30.75
2022-12-04T05:12:27.174Z,30.77
2022-12-04T05:14:55.084Z,28.65
2022-12-04T05:17:23.032Z,31.55
2022-12-04T05:19:54.973Z,28.15
2022-12-04T05:22:26.893Z,33.05
2022-12-04T05:24:54.986Z,29.42
2022-12-04T05:27:23.935Z,31.00
2022-12-04T05:29:53.669Z,31.27
2022-12-04T05:32:23.054Z,31.90
2022-12-04T05:34:52.819Z,31.70
2022-12-04T05:37:21.246Z,32.33
2022-12-04T05:39:49.788Z,30.38
2022-12-04T05:42:18.719Z,31.52
2022-12-04T05:44:46.884Z,29.30
2022-12-04T05:47:15.203Z,30.92
2022-12-04T05:49:43.465Z,32.38
2022-12-04T05:52:13.083Z,32.63
2022-12-04T05:54:41.347Z,29.52
2022-12-04T05:57:09.340Z,33.92
2022-12-04T05:59:37.714Z,31.10
2022-12-04T06:02:05.844Z,32.38
2022-12-04T06:04:34.066Z,33.70
2022-12-04T06:07:02.029Z,32.05
2022-12-04T06:09:31.740Z,33.20
2022-12-04T06:12:00.278Z,32.42
2022-12-04T06:14:28.367Z,31.83
2022-12-04T06:16:56.789Z,32.15
2022-12-04T06:19:25.314Z,31.15
2022-12-04T06:21:54.414Z,31.25
2022-12-04T06:24:24.616Z,28.92
2022-12-04T06:29:44.739Z,34.58
2022-12-04T06:32:16.479Z,32.55
2022-12-04T06:34:51.554Z,31.65
2022-12-04T06:37:20.349Z,34.90
2022-12-04T06:39:48.468Z,31.00
2022-12-04T06:42:18.441Z,35.05
2022-12-04T06:44:46.439Z,33.50
2022-12-04T06:47:14.476Z,38.22
2022-12-04T06:49:42.684Z,41.15
2022-12-04T06:52:10.620Z,39.20
2022-12-04T06:54:38.692Z,37.90
2022-12-04T06:57:06.694Z,39.90
2022-12-04T06:59:37.394Z,43.42
2022-12-04T07:02:05.592Z,37.97
2022-12-04T07:04:33.827Z,39.90
2022-12-04T07:07:01.770Z,41.47
2022-12-04T07:09:30.072Z,41.65
2022-12-04T07:11:57.971Z,42.72
2022-12-04T07:14:25.920Z,44.92
2022-12-04T07:16:55.319Z,46.25
2022-12-04T07:19:23.412Z,42.90
2022-12-04T07:21:51.895Z,47.22
2022-12-04T07:24:19.967Z,44.45
2022-12-04T07:26:48.317Z,46.05
2022-12-04T07:29:16.426Z,45.63
2022-12-04T07:31:44.915Z,47.60
2022-12-04T07:34:14.500Z,44.25
2022-12-04T07:36:42.653Z,47.28
2022-12-04T07:39:11.164Z,41.67
2022-12-04T07:41:39.122Z,44.28
2022-12-04T07:44:09.092Z,48.38
2022-12-04T07:46:37.893Z,45.78
2022-12-04T07:49:05.969Z,48.38
2022-12-04T07:51:35.565Z,49.47
2022-12-04T07:54:04.613Z,53.40
2022-12-04T07:56:32.812Z,57.65
2022-12-04T07:59:01.164Z,53.28
2022-12-04T08:01:29.586Z,51.58
2022-12-04T08:03:59.849Z,51.40
2022-12-04T08:06:29.653Z,51.55
2022-12-04T08:08:59.981Z,54.15
2022-12-04T08:11:30.223Z,58.20
2022-12-04T08:14:00.352Z,51.33
2022-12-04T08:18:58.403Z,49.30
2022-12-04T08:21:28.601Z,51.67
2022-12-04T08:26:29.828Z,57.50
2022-12-04T08:28:59.041Z,62.60
2022-12-04T08:31:29.817Z,54.85
2022-12-04T08:33:59.605Z,59.33
2022-12-04T08:36:28.602Z,55.20
2022-12-04T08:38:57.123Z,61.15
2022-12-04T08:41:27.836Z,50.90
2022-12-04T08:43:58.517Z,53.15
2022-12-04T08:46:29.816Z,58.95
2022-12-04T08:48:58.317Z,66.50
2022-12-04T08:51:29.105Z,59.60
2022-12-04T08:53:59.111Z,81.63
2022-12-04T08:56:30.357Z,64.00
2022-12-04T08:58:59.541Z,64.57
2022-12-04T09:01:29.129Z,67.32
2022-12-04T09:03:57.612Z,65.15
2022-12-04T09:06:25.949Z,65.70
2022-12-04T09:08:55.352Z,67.60
2022-12-04T09:11:25.643Z,65.47
2022-12-04T09:18:54.223Z,69.73
2022-12-04T09:21:23.622Z,63.72
2022-12-04T09:23:52.403Z,79.80
2022-12-04T09:26:24.330Z,60.25
2022-12-04T09:28:54.521Z,63.95
2022-12-04T09:33:51.896Z,62.33
2022-12-04T09:36:20.194Z,65.10
2022-12-04T09:38:49.839Z,61.88
2022-12-04T09:41:33.802Z,58.13
2022-12-04T09:44:07.450Z,60.10
2022-12-04T09:46:39.568Z,65.82
2022-12-04T09:49:13.883Z,66.28
2022-12-04T09:51:43.133Z,69.43
2022-12-04T09:54:18.178Z,69.20
2022-12-04T09:56:55.113Z,68.38
2022-12-04T09:59:27.357Z,74.97
2022-12-04T10:02:01.619Z,75.97
2022-12-04T10:04:30.077Z,78.57
2022-12-04T10:07:05.688Z,74.00
2022-12-04T10:09:43.343Z,82.25
2022-12-04T10:12:23.355Z,72.97
2022-12-04T10:15:05.318Z,79.53
2022-12-04T10:17:48.644Z,115.75
2022-12-04T10:20:40.318Z,79.05
2022-12-04T10:23:14.615Z,76.00
2022-12-04T10:25:44.138Z,67.72
2022-12-04T10:28:22.072Z,66.75
2022-12-04T10:30:54.126Z,68.88
2022-12-04T10:33:29.149Z,64.30
2022-12-04T10:35:58.124Z,79.15
2022-12-04T10:38:34.322Z,68.07
2022-12-04T10:41:13.330Z,73.80
2022-12-04T10:43:45.268Z,64.57
2022-12-04T10:46:19.536Z,68.85
2022-12-04T10:48:50.466Z,66.07
2022-12-04T10:51:21.547Z,66.15
2022-12-04T10:53:50.313Z,71.07
2022-12-04T10:56:20.455Z,67.95
2022-12-04T11:01:30.027Z,64.25
2022-12-04T11:04:02.096Z,63.65
2022-12-04T11:06:31.687Z,69.75
2022-12-04T11:09:01.047Z,64.60
2022-12-04T11:11:31.598Z,69.10
2022-12-04T11:14:08.546Z,63.20
2022-12-04T11:16:44.897Z,65.45
2022-12-04T11:19:24.953Z,69.70
2022-12-04T11:21:56.121Z,63.53
2022-12-04T11:24:27.807Z,62.17
2022-12-04T11:26:58.030Z,69.20
2022-12-04T11:32:07.150Z,68.88
2022-12-04T11:34:39.876Z,65.88
2022-12-04T11:37:20.180Z,66.20
2022-12-04T11:39:49.482Z,63.70
2022-12-04T11:42:20.855Z,75.23
2022-12-04T11:44:54.947Z,74.50
2022-12-04T11:47:26.591Z,73.15
2022-12-04T11:50:14.585Z,71.70
2022-12-04T11:52:59.323Z,76.50
2022-12-04T11:55:35.515Z,64.13
2022-12-04T11:58:24.849Z,74.68
2022-12-04T12:01:01.294Z,68.40
2022-12-04T12:03:39.061Z,64.18
2022-12-04T12:06:32.494Z,79.88
2022-12-04T12:09:21.565Z,71.63
2022-12-04T12:11:57.644Z,75.38
2022-12-04T12:14:33.739Z,95.07
2022-12-04T12:17:16.022Z,69.47
2022-12-04T12:20:22.711Z,64.18
2022-12-04T12:23:13.866Z,64.45
2022-12-04T12:25:54.666Z,71.65
2022-12-04T12:28:39.948Z,68.75
2022-12-04T12:31:25.644Z,71.38
2022-12-04T12:33:57.857Z,72.78
2022-12-04T12:36:29.931Z,75.05
2022-12-04T12:39:04.055Z,67.32
2022-12-04T12:41:37.219Z,74.93
2022-12-04T12:44:13.739Z,74.97
2022-12-04T12:46:51.540Z,67.70
2022-12-04T12:49:23.578Z,66.63
2022-12-04T12:51:56.761Z,70.20
2022-12-04T12:54:32.642Z,71.20
2022-12-04T12:57:06.859Z,65.00
2022-12-04T12:59:35.909Z,70.93
2022-12-04T13:02:13.056Z,69.28
2022-12-04T13:04:44.877Z,67.55
2022-12-04T13:07:27.169Z,70.68
2022-12-04T13:10:05.179Z,73.15
2022-12-04T13:12:46.644Z,64.10
2022-12-04T13:15:17.331Z,61.88
2022-12-04T13:17:48.598Z,66.40
2022-12-04T13:20:23.573Z,97.35
2022-12-04T13:23:07.320Z,94.18
2022-12-04T13:25:49.253Z,74.40
2022-12-04T13:28:31.574Z,74.30
2022-12-04T13:31:12.261Z,64.13
2022-12-04T13:33:54.839Z,71.90
2022-12-04T13:36:49.485Z,68.63
2022-12-04T13:39:57.632Z,68.65
2022-12-04T13:42:30.211Z,61.10
2022-12-04T13:45:00.909Z,64.18
2022-12-04T13:47:32.958Z,64.38
2022-12-04T13:50:10.953Z,61.25
2022-12-04T13:52:41.592Z,68.97
2022-12-04T13:55:25.802Z,70.03
2022-12-04T13:58:00.994Z,75.78
2022-12-04T14:00:32.744Z,63.22
2022-12-04T14:03:04.962Z,66.03
2022-12-04T14:05:42.105Z,60.42
2022-12-04T14:08:25.603Z,62.03
2022-12-04T14:11:03.638Z,61.10
2022-12-04T14:13:44.357Z,62.58
2022-12-04T14:16:22.644Z,61.20
2022-12-04T14:18:54.286Z,59.30
2022-12-04T14:21:22.963Z,62.47
2022-12-04T14:23:51.968Z,67.47
2022-12-04T14:26:42.869Z,62.45
2022-12-04T14:29:38.716Z,71.80
2022-12-04T14:32:15.101Z,58.83
2022-12-04T14:34:43.999Z,70.57
2022-12-04T14:37:23.529Z,68.53
2022-12-04T14:39:53.220Z,60.17
2022-12-04T14:42:26.796Z,58.80
2022-12-04T14:44:59.308Z,55.28
2022-12-04T14:47:40.148Z,56.00
2022-12-04T14:50:30.972Z,71.10
2022-12-04T14:53:10.321Z,77.45
2022-12-04T14:55:47.860Z,78.82
2022-12-04T14:58:34.857Z,53.90
2022-12-04T15:01:07.457Z,103.20
2022-12-04T15:03:42.734Z,58.10
2022-12-04T15:06:20.410Z,58.95
2022-12-04T15:08:53.752Z,53.38
2022-12-04T15:11:40.004Z,73.65
2022-12-04T15:14:14.496Z,58.47
2022-12-04T15:16:44.000Z,104.72
2022-12-04T15:19:19.100Z,66.07
2022-12-04T15:21:47.147Z,79.13
2022-12-04T15:24:20.246Z,55.72
2022-12-04T15:26:48.924Z,81.60
2022-12-04T15:29:21.128Z,108.07
2022-12-04T15:31:56.791Z,60.67
2022-12-04T15:34:30.484Z,52.22
2022-12-04T15:37:07.269Z,124.80
2022-12-04T15:39:38.278Z,69.35
2022-12-04T15:42:07.977Z,53.00
2022-12-04T15:44:37.760Z,53.45
2022-12-04T15:47:18.823Z,57.17
2022-12-04T15:49:46.825Z,62.13
2022-12-04T15:52:17.619Z,56.70
2022-12-04T15:54:51.015Z,63.28
2022-12-04T15:57:26.578Z,61.63
2022-12-04T15:59:55.556Z,67.95
2022-12-04T16:02:29.261Z,62.22
2022-12-04T16:04:58.407Z,81.18
2022-12-04T16:07:29.174Z,66.13
2022-12-04T16:10:03.667Z,96.20
2022-12-04T16:12:34.094Z,67.05
2022-12-04T16:15:02.132Z,74.72
2022-12-04T16:17:33.376Z,76.57
2022-12-04T16:20:02.151Z,60.20
2022-12-04T16:22:31.542Z,63.67
2022-12-04T16:25:00.081Z,89.65
2022-12-04T16:27:28.269Z,53.20
2022-12-04T16:29:56.359Z,59.25
2022-12-04T16:32:29.955Z,62.17
2022-12-04T16:35:00.217Z,54.17
2022-12-04T16:39:56.747Z,72.35
2022-12-04T16:42:27.900Z,58.47
2022-12-04T16:44:56.866Z,61.63
2022-12-04T16:47:25.280Z,58.55
2022-12-04T16:49:54.456Z,59.22
2022-12-04T16:52:24.072Z,56.38
2022-12-04T16:54:52.345Z,51.70
2022-12-04T16:57:20.342Z,55.55
2022-12-04T16:59:48.833Z,63.03
2022-12-04T17:02:27.521Z,48.95
2022-12-04T17:04:57.810Z,55.13
2022-12-04T17:07:30.355Z,57.30
2022-12-04T17:09:58.601Z,48.22
2022-12-04T17:12:26.786Z,47.78
2022-12-04T17:14:55.189Z,47.63
2022-12-04T17:17:23.584Z,51.28
2022-12-04T17:19:51.640Z,48.60
2022-12-04T17:22:21.134Z,55.90
2022-12-04T17:24:55.964Z,48.55
2022-12-04T17:27:25.448Z,52.63
2022-12-04T17:29:53.974Z,147.70
2022-12-04T17:32:22.416Z,60.60
2022-12-04T17:34:52.511Z,100.18
2022-12-04T17:37:20.896Z,141.68
2022-12-04T17:39:50.448Z,131.35
2022-12-04T17:42:18.445Z,54.60
2022-12-04T17:44:47.075Z,49.28
2022-12-04T17:47:15.368Z,51.33
2022-12-04T17:49:43.565Z,39.78
2022-12-04T17:52:12.140Z,45.22
2022-12-04T17:54:40.434Z,45.25
2022-12-04T17:57:10.115Z,44.30
2022-12-04T17:59:38.238Z,42.88
2022-12-04T18:02:06.476Z,46.20
2022-12-04T18:04:36.457Z,43.42
2022-12-04T18:07:05.075Z,36.33
2022-12-04T18:09:33.290Z,37.35
2022-12-04T18:12:01.678Z,34.55
2022-12-04T18:14:31.744Z,36.50
2022-12-04T18:17:01.212Z,38.10
2022-12-04T18:19:30.957Z,40.90
2022-12-04T18:21:59.699Z,42.15
2022-12-04T18:24:28.676Z,35.88
2022-12-04T18:26:56.792Z,33.53
2022-12-04T18:29:27.172Z,37.13
2022-12-04T18:31:56.922Z,31.98
2022-12-04T18:34:25.029Z,31.77
2022-12-04T18:36:53.368Z,37.05
2022-12-04T18:39:23.401Z,31.60
2022-12-04T18:41:51.478Z,29.70
2022-12-04T18:44:19.553Z,32.97
2022-12-04T18:46:47.621Z,34.17
2022-12-04T18:49:17.042Z,33.25
2022-12-04T18:51:49.734Z,32.47
2022-12-04T18:54:20.179Z,33.22
2022-12-04T18:56:48.683Z,31.15
2022-12-04T18:59:18.843Z,29.05
2022-12-04T19:01:49.861Z,31.90
2022-12-04T19:04:20.446Z,31.77
2022-12-04T19:06:51.803Z,31.25
2022-12-04T19:09:35.466Z,34.38
2022-12-04T19:12:09.496Z,28.88
2022-12-04T19:14:38.641Z,44.30
2022-12-04T19:17:07.237Z,46.50
2022-12-04T19:19:36.867Z,39.45
2022-12-04T19:22:05.190Z,35.45
2022-12-04T19:24:33.601Z,32.28
2022-12-04T19:27:10.037Z,151.50
2022-12-04T19:29:38.262Z,43.47
2022-12-04T19:32:06.670Z,40.88
2022-12-04T19:34:35.877Z,48.95
2022-12-04T19:37:05.579Z,67.17
2022-12-04T19:39:33.877Z,109.65
2022-12-04T19:42:01.937Z,93.55
2022-12-04T19:47:18.772Z,101.88
2022-12-04T19:49:47.524Z,82.68
2022-12-04T19:52:16.921Z,91.93
2022-12-04T19:54:45.501Z,41.13
2022-12-04T19:57:14.648Z,53.70
2022-12-04T19:59:46.248Z,54.20
2022-12-04T20:02:15.004Z,43.90
2022-12-04T20:04:43.298Z,37.47
2022-12-04T20:07:11.511Z,42.08
2022-12-04T20:09:41.124Z,37.00
2022-12-04T20:12:09.244Z,45.55
2022-12-04T20:14:37.267Z,39.33
2022-12-04T20:17:05.519Z,41.03
2022-12-04T20:19:33.828Z,43.97
2022-12-04T20:22:02.071Z,42.97
2022-12-04T20:24:30.165Z,38.35
2022-12-04T20:26:59.553Z,42.05
2022-12-04T20:29:27.613Z,44.42
2022-12-04T20:31:55.490Z,35.75
2022-12-04T20:34:23.573Z,35.97
2022-12-04T20:36:51.874Z,37.35
2022-12-04T20:39:21.877Z,35.65
2022-12-04T20:41:49.954Z,41.15
2022-12-04T20:44:20.626Z,38.90
2022-12-04T20:46:49.250Z,37.63
2022-12-04T20:49:22.113Z,41.28
2022-12-04T20:51:52.745Z,33.85
2022-12-04T20:54:23.126Z,41.03
2022-12-04T20:56:53.264Z,34.58
2022-12-04T20:59:24.683Z,30.90
2022-12-04T21:01:53.139Z,33.60
2022-12-04T21:04:21.799Z,35.88
2022-12-04T21:06:50.200Z,32.55
2022-12-04T21:09:22.062Z,34.95
2022-12-04T21:11:52.392Z,35.17
2022-12-04T21:14:40.791Z,32.08
2022-12-04T21:17:11.700Z,31.13
2022-12-04T21:19:40.118Z,38.72
2022-12-04T21:22:08.075Z,34.00
2022-12-04T21:24:38.868Z,38.95
2022-12-04T21:27:07.889Z,45.28
2022-12-04T21:29:38.030Z,31.20
2022-12-04T21:34:35.942Z,44.87
2022-12-04T21:37:03.945Z,37.20
2022-12-04T21:39:32.751Z,38.42
2022-12-04T21:42:17.902Z,35.60
2022-12-04T21:44:47.637Z,29.20
2022-12-04T21:47:15.802Z,43.63
2022-12-04T21:49:43.988Z,66.00
2022-12-04T21:52:12.046Z,35.63
2022-12-04T21:54:40.012Z,32.28
2022-12-04T21:57:07.978Z,32.83
2022-12-04T21:59:36.011Z,35.00
2022-12-04T22:02:05.398Z,35.00
2022-12-04T22:04:33.539Z,30.42
2022-12-04T22:07:02.127Z,30.73
2022-12-04T22:09:30.272Z,32.67
2022-12-04T22:11:58.501Z,31.42
2022-12-04T22:14:26.763Z,32.35
2022-12-04T22:16:55.378Z,29.08
2022-12-04T22:19:24.696Z,35.47
2022-12-04T22:21:52.728Z,31.20
2022-12-04T22:24:20.740Z,33.22
2022-12-04T22:26:48.709Z,33.53
2022-12-04T22:29:48.678Z,29.75
2022-12-04T22:32:05.132Z,30.55
2022-12-04T22:34:34.546Z,30.65
2022-12-04T22:37:02.500Z,67.95
2022-12-04T22:39:30.736Z,40.72
2022-12-04T22:41:58.662Z,193.52
2022-12-04T22:44:26.691Z,290.17
2022-12-04T22:46:54.742Z,45.53
2022-12-04T22:49:22.860Z,69.40
2022-12-04T22:51:53.444Z,87.78
2022-12-04T22:54:21.409Z,115.10
2022-12-04T22:56:49.528Z,66.57
2022-12-04T22:59:17.875Z,81.28
2022-12-04T23:01:46.017Z,38.33
2022-12-04T23:04:14.110Z,33.85
2022-12-04T23:06:42.252Z,42.08
2022-12-04T23:09:14.803Z,48.67
2022-12-04T23:11:43.423Z,51.85
2022-12-04T23:14:14.307Z,43.10
2022-12-04T23:16:43.131Z,38.35
2022-12-04T23:19:15.944Z,42.33
2022-12-04T23:21:44.581Z,51.90
2022-12-04T23:24:14.131Z,35.08
2022-12-04T23:26:44.827Z,37.03
2022-12-04T23:29:36.837Z,36.28
2022-12-04T23:32:01.751Z,37.45
2022-12-04T23:34:30.037Z,40.03
2022-12-04T23:36:58.002Z,36.88
2022-12-04T23:39:27.385Z,37.25
2022-12-04T23:41:55.483Z,37.25
2022-12-04T23:44:23.642Z,37.40
2022-12-04T23:46:51.698Z,35.25
2022-12-04T23:49:19.724Z,32.70
2022-12-04T23:51:47.774Z,36.63
2022-12-04T23:54:15.898Z,35.03
2022-12-04T23:56:45.300Z,36.60
2022-12-04T23:59:13.351Z,35.15
